Time;durP1;ratioP1;P1;durP2;ratioP2;P2;SDS_P1;SDS_P2;PMS_P1;PMS_P2;Temp;Humidity;BMP_temperature;BMP_pressure;BME280_temperature;BME280_humidity;BME280_pressure;Samples;Min_cycle;Max_cycle;Signal;HPM_P1;HPM_P2
2024/01/30 00:01:03;;;;;;;18.73;10.27;;;3.10;1.00;;;;;;5031248;28;20178;-75
2024/01/30 00:03:29;;;;;;;15.33;10.10;;;3.00;1.00;;;;;;5013332;28;20190;-75
2024/01/30 00:05:55;;;;;;;17.33;10.57;;;3.40;1.00;;;;;;5013819;28;20181;-75
2024/01/30 00:08:20;;;;;;;16.30;10.13;;;3.00;1.00;;;;;;5030460;28;20985;-74
2024/01/30 00:10:46;;;;;;;18.60;10.80;;;3.20;1.00;;;;;;5031550;28;20904;-74
2024/01/30 00:13:13;;;;;;;18.50;10.50;;;2.90;1.00;;;;;;5031047;28;20206;-74
2024/01/30 00:15:39;;;;;;;19.53;10.37;;;2.80;1.00;;;;;;5020500;28;20189;-75
2024/01/30 00:18:04;;;;;;;16.40;10.20;;;2.90;1.00;;;;;;5026729;28;20786;-75
2024/01/30 00:20:30;;;;;;;17.60;10.03;;;2.90;1.00;;;;;;5012724;28;20189;-74
2024/01/30 00:22:55;;;;;;;18.17;9.83;;;3.20;1.00;;;;;;5012879;28;20193;-75
2024/01/30 00:25:21;;;;;;;18.60;10.80;;;2.90;1.00;;;;;;5030929;28;20551;-74
2024/01/30 00:27:46;;;;;;;16.00;9.77;;;2.80;1.00;;;;;;5013004;28;20560;-75
2024/01/30 00:30:12;;;;;;;21.43;10.20;;;3.20;1.00;;;;;;5030659;28;20197;-75
2024/01/30 00:32:38;;;;;;;22.63;10.17;;;2.80;1.00;;;;;;5030514;28;20248;-74
2024/01/30 00:35:03;;;;;;;14.37;9.70;;;2.80;1.00;;;;;;5030808;28;20707;-75
2024/01/30 00:37:29;;;;;;;15.80;9.20;;;2.80;1.00;;;;;;5030324;28;20209;-74
2024/01/30 00:39:54;;;;;;;19.17;10.33;;;3.30;1.00;;;;;;5030676;28;20182;-75
2024/01/30 00:42:21;;;;;;;16.70;9.77;;;2.80;1.00;;;;;;5030110;28;20186;-75
2024/01/30 00:44:46;;;;;;;15.97;10.23;;;2.80;1.00;;;;;;5029609;28;20184;-74
2024/01/30 00:47:12;;;;;;;13.93;9.00;;;2.80;1.00;;;;;;5030387;28;20461;-74
2024/01/30 00:49:37;;;;;;;14.90;8.80;;;2.80;1.00;;;;;;5028448;28;20185;-75
2024/01/30 00:52:03;;;;;;;20.53;10.33;;;3.00;1.00;;;;;;5012094;28;20208;-74
2024/01/30 00:54:29;;;;;;;16.50;10.00;;;2.80;1.00;;;;;;5030180;28;20190;-75
2024/01/30 00:56:54;;;;;;;18.50;10.10;;;2.70;1.00;;;;;;5030492;28;20186;-74
2024/01/30 00:59:20;;;;;;;19.97;11.03;;;3.10;1.00;;;;;;5012623;28;20487;-74
2024/01/30 01:01:45;;;;;;;18.63;10.70;;;2.70;1.00;;;;;;5029915;28;20272;-74
2024/01/30 01:04:11;;;;;;;16.80;10.60;;;3.00;1.00;;;;;;5011558;28;20188;-75
2024/01/30 01:06:36;;;;;;;19.40;9.90;;;2.60;1.00;;;;;;5028341;28;20592;-74
2024/01/30 01:09:03;;;;;;;13.93;9.63;;;2.60;1.00;;;;;;5029972;28;20205;-75
2024/01/30 01:11:29;;;;;;;18.70;9.93;;;2.50;1.00;;;;;;5027674;28;20174;-74
2024/01/30 01:13:54;;;;;;;18.30;9.93;;;3.00;1.00;;;;;;5024786;28;20558;-75
2024/01/30 01:16:20;;;;;;;17.37;10.40;;;2.40;1.00;;;;;;5002176;28;20274;-74
2024/01/30 01:18:45;;;;;;;18.30;9.57;;;2.50;1.00;;;;;;5029111;28;20752;-75
2024/01/30 01:21:11;;;;;;;13.47;9.20;;;2.50;1.00;;;;;;5011928;28;20445;-75
2024/01/30 01:23:36;;;;;;;15.07;9.70;;;2.50;1.00;;;;;;5011814;28;20675;-75
2024/01/30 01:26:02;;;;;;;13.00;8.20;;;2.50;1.00;;;;;;5027661;28;20182;-74
2024/01/30 01:28:28;;;;;;;14.80;7.70;;;2.60;1.00;;;;;;5029313;28;20257;-75
2024/01/30 01:30:53;;;;;;;16.53;9.20;;;2.60;1.00;;;;;;5029902;28;20259;-74
2024/01/30 01:33:19;;;;;;;19.53;7.97;;;2.90;1.00;;;;;;5029856;28;20229;-73
2024/01/30 01:35:44;;;;;;;13.20;8.37;;;3.00;1.00;;;;;;5028991;28;20174;-75
2024/01/30 01:38:10;;;;;;;15.60;8.70;;;2.50;1.00;;;;;;5011509;28;20293;-74
2024/01/30 01:40:36;;;;;;;14.47;8.80;;;2.50;1.00;;;;;;5011757;28;20197;-74
2024/01/30 01:43:05;;;;;;;14.27;8.23;;;3.00;1.00;;;;;;5011808;28;20440;-74
2024/01/30 01:45:30;;;;;;;18.43;9.40;;;2.50;1.00;;;;;;5011768;28;20208;-75
2024/01/30 01:47:55;;;;;;;13.60;8.43;;;2.50;1.00;;;;;;5008007;28;20464;-74
2024/01/30 01:50:22;;;;;;;16.80;9.00;;;2.50;1.00;;;;;;5010826;28;20177;-75
2024/01/30 01:52:48;;;;;;;21.33;9.70;;;2.50;1.00;;;;;;5028656;28;21031;-75
2024/01/30 01:55:16;;;;;;;17.20;9.20;;;2.40;1.00;;;;;;5030015;28;20826;-74
2024/01/30 01:57:42;;;;;;;15.00;8.50;;;2.40;1.00;;;;;;5028555;28;20528;-74
2024/01/30 02:00:10;;;;;;;14.53;8.77;;;2.40;1.00;;;;;;5029198;28;20503;-72
2024/01/30 02:02:36;;;;;;;15.60;7.97;;;2.40;1.00;;;;;;5028301;28;20939;-73
2024/01/30 02:05:01;;;;;;;13.57;7.60;;;2.30;1.00;;;;;;5011060;28;20947;-73
2024/01/30 02:07:28;;;;;;;13.40;8.00;;;2.20;1.00;;;;;;5029207;28;20455;-73
2024/01/30 02:09:54;;;;;;;19.67;8.97;;;2.20;1.00;;;;;;5028446;28;20284;-73
2024/01/30 02:12:19;;;;;;;14.00;8.13;;;2.30;1.00;;;;;;5028910;28;20460;-73
2024/01/30 02:14:49;;;;;;;15.80;8.43;;;2.20;1.00;;;;;;5011067;28;20231;-74
2024/01/30 02:17:17;;;;;;;17.67;8.53;;;2.60;1.00;;;;;;5011172;28;20209;-74
2024/01/30 02:19:42;;;;;;;14.80;8.97;;;2.30;1.00;;;;;;5028486;28;20427;-74
2024/01/30 02:22:09;;;;;;;14.53;8.17;;;2.30;1.00;;;;;;5012611;28;20512;-74
2024/01/30 02:24:34;;;;;;;11.90;8.00;;;2.30;1.00;;;;;;5032536;28;20243;-73
2024/01/30 02:27:00;;;;;;;14.90;8.07;;;2.40;1.00;;;;;;5015064;28;20432;-74
2024/01/30 02:29:25;;;;;;;13.37;7.50;;;2.40;1.00;;;;;;5013652;28;20296;-74
2024/01/30 02:31:52;;;;;;;11.83;7.53;;;2.70;1.00;;;;;;5032323;28;20205;-73
2024/01/30 02:34:19;;;;;;;13.93;7.43;;;2.30;1.00;;;;;;5032384;28;20181;-74
2024/01/30 02:36:44;;;;;;;12.90;7.40;;;2.30;1.00;;;;;;5032839;28;20484;-74
2024/01/30 02:39:10;;;;;;;11.47;7.70;;;2.20;1.00;;;;;;5031839;28;20804;-73
2024/01/30 02:41:36;;;;;;;10.10;7.00;;;2.30;1.00;;;;;;5031648;28;20238;-73
2024/01/30 02:44:02;;;;;;;13.50;7.40;;;2.30;1.00;;;;;;5014658;28;20177;-73
2024/01/30 02:46:28;;;;;;;11.40;7.30;;;2.70;1.00;;;;;;5032702;28;20186;-73
2024/01/30 02:48:53;;;;;;;12.17;6.57;;;2.20;1.00;;;;;;5029890;28;20470;-73
2024/01/30 02:51:19;;;;;;;12.63;7.00;;;2.60;1.00;;;;;;5032370;28;20588;-74
2024/01/30 02:53:44;;;;;;;13.67;7.17;;;2.20;1.00;;;;;;5014314;28;20194;-72
2024/01/30 02:56:10;;;;;;;12.03;7.10;;;2.20;1.00;;;;;;5032886;28;20189;-73
2024/01/30 02:58:36;;;;;;;11.23;6.30;;;2.20;1.00;;;;;;5013698;28;20247;-72
2024/01/30 03:01:03;;;;;;;11.00;6.50;;;2.70;1.00;;;;;;5032494;28;20205;-72
2024/01/30 03:03:28;;;;;;;10.10;6.50;;;2.10;1.00;;;;;;5014454;28;20752;-73
2024/01/30 03:05:54;;;;;;;10.00;6.30;;;2.20;1.00;;;;;;5014261;28;20443;-73
2024/01/30 03:08:19;;;;;;;9.20;6.13;;;2.10;1.00;;;;;;5032126;28;20201;-74
2024/01/30 03:10:45;;;;;;;10.83;6.70;;;2.60;1.00;;;;;;5031382;28;20307;-74
2024/01/30 03:13:10;;;;;;;10.87;6.30;;;2.10;1.00;;;;;;5032017;28;20209;-73
2024/01/30 03:15:36;;;;;;;8.67;5.97;;;2.10;1.00;;;;;;5031805;28;20699;-74
2024/01/30 03:18:03;;;;;;;10.87;6.83;;;2.10;1.00;;;;;;5031130;28;20208;-73
2024/01/30 03:20:29;;;;;;;10.70;6.90;;;2.10;1.00;;;;;;5031846;28;20280;-72
2024/01/30 03:22:55;;;;;;;8.77;5.90;;;2.10;1.00;;;;;;5031323;28;20424;-72
2024/01/30 03:25:21;;;;;;;8.73;6.47;;;2.10;1.00;;;;;;5032109;28;20186;-72
2024/01/30 03:27:46;;;;;;;12.37;6.90;;;2.10;1.00;;;;;;5012937;28;20206;-74
2024/01/30 03:30:12;;;;;;;9.87;6.70;;;2.10;1.00;;;;;;5031204;28;20852;-73
2024/01/30 03:32:37;;;;;;;11.37;6.30;;;2.10;1.00;;;;;;5012738;28;20205;-73
2024/01/30 03:35:03;;;;;;;9.50;6.13;;;2.10;1.00;;;;;;5005318;28;20178;-73
2024/01/30 03:37:29;;;;;;;12.63;6.13;;;2.10;1.00;;;;;;5031649;28;20202;-74
2024/01/30 03:39:54;;;;;;;9.63;5.40;;;2.50;1.00;;;;;;5031031;28;20815;-73
2024/01/30 03:42:20;;;;;;;9.33;6.30;;;2.10;1.00;;;;;;5031374;28;20188;-74
2024/01/30 03:44:46;;;;;;;10.53;6.13;;;2.10;1.00;;;;;;5026111;28;20545;-74
2024/01/30 03:47:11;;;;;;;9.23;5.77;;;2.10;1.00;;;;;;5031078;28;20720;-73
2024/01/30 03:49:37;;;;;;;13.03;6.53;;;2.50;1.00;;;;;;5031082;28;20271;-74
2024/01/30 03:52:02;;;;;;;11.93;6.50;;;2.00;1.00;;;;;;5030792;28;20198;-73
2024/01/30 03:54:28;;;;;;;9.97;6.40;;;2.10;1.00;;;;;;5031319;28;20178;-73
2024/01/30 03:56:53;;;;;;;9.90;6.13;;;2.00;1.00;;;;;;5031021;28;20189;-74
2024/01/30 03:59:23;;;;;;;11.20;6.37;;;2.00;1.00;;;;;;5012863;28;20197;-74
2024/01/30 04:01:52;;;;;;;10.47;6.40;;;2.10;1.00;;;;;;5030857;28;20186;-74
2024/01/30 04:04:18;;;;;;;9.50;6.33;;;2.00;1.00;;;;;;5031284;28;20791;-73
2024/01/30 04:06:45;;;;;;;10.60;5.70;;;2.00;1.00;;;;;;5030716;28;20451;-74
2024/01/30 04:09:12;;;;;;;10.47;6.70;;;2.00;1.00;;;;;;5030837;28;20448;-74
2024/01/30 04:11:38;;;;;;;8.23;6.20;;;2.00;1.00;;;;;;5013250;28;20457;-73
2024/01/30 04:14:04;;;;;;;12.80;6.83;;;2.00;1.00;;;;;;5026420;28;20555;-73
2024/01/30 04:16:29;;;;;;;12.20;6.43;;;2.00;1.00;;;;;;5013156;28;20683;-74
2024/01/30 04:18:55;;;;;;;9.07;5.90;;;2.00;1.00;;;;;;5030347;28;20235;-73
2024/01/30 04:21:21;;;;;;;9.23;5.80;;;2.00;1.00;;;;;;5030632;28;20201;-73
2024/01/30 04:23:48;;;;;;;11.07;6.30;;;2.40;1.00;;;;;;5029769;28;20456;-73
2024/01/30 04:26:13;;;;;;;11.07;7.00;;;2.30;1.00;;;;;;5030707;28;20972;-73
2024/01/30 04:28:41;;;;;;;9.60;5.87;;;2.40;1.00;;;;;;5030576;28;20523;-73
2024/01/30 04:31:07;;;;;;;9.30;6.03;;;2.00;1.00;;;;;;5030020;28;20220;-73
2024/01/30 04:33:32;;;;;;;9.60;5.90;;;2.00;1.00;;;;;;5030287;28;20470;-73
2024/01/30 04:35:58;;;;;;;10.83;6.70;;;2.00;1.00;;;;;;5030146;28;20285;-73
2024/01/30 04:38:23;;;;;;;10.03;6.03;;;2.00;1.00;;;;;;5027340;28;20212;-73
2024/01/30 04:40:49;;;;;;;9.67;6.50;;;2.00;1.00;;;;;;5030207;28;20177;-73
2024/01/30 04:43:15;;;;;;;8.10;6.90;;;2.00;1.00;;;;;;5030447;28;20265;-73
2024/01/30 04:45:41;;;;;;;10.57;6.17;;;2.00;1.00;;;;;;5012143;28;20208;-73
2024/01/30 04:48:07;;;;;;;8.93;6.00;;;2.10;1.00;;;;;;5025720;28;20468;-74
2024/01/30 04:50:32;;;;;;;10.00;5.90;;;2.10;1.00;;;;;;5012260;28;20201;-73
2024/01/30 04:52:58;;;;;;;9.00;6.20;;;2.10;1.00;;;;;;5005460;28;20285;-73
2024/01/30 04:55:23;;;;;;;9.63;6.40;;;2.00;1.00;;;;;;5011037;28;20174;-73
2024/01/30 04:57:49;;;;;;;11.80;6.03;;;2.00;1.00;;;;;;5011981;28;20637;-74
2024/01/30 05:00:15;;;;;;;11.10;6.30;;;2.00;1.00;;;;;;5010883;28;20186;-73
2024/01/30 05:02:41;;;;;;;7.53;5.70;;;2.00;1.00;;;;;;5009199;28;20656;-74
2024/01/30 05:05:07;;;;;;;11.73;6.20;;;2.00;1.00;;;;;;5010856;28;20451;-74
2024/01/30 05:07:33;;;;;;;10.70;6.30;;;1.90;1.00;;;;;;5012339;28;20275;-73
2024/01/30 05:09:59;;;;;;;11.47;6.40;;;1.90;1.00;;;;;;5011715;28;20977;-74
2024/01/30 05:12:25;;;;;;;9.63;6.10;;;1.90;1.00;;;;;;5011653;28;20483;-74
2024/01/30 05:14:51;;;;;;;10.53;7.00;;;1.90;1.00;;;;;;5009826;28;20174;-73
2024/01/30 05:17:16;;;;;;;16.30;7.63;;;2.00;1.00;;;;;;5012106;28;20221;-73
2024/01/30 05:19:43;;;;;;;10.77;6.50;;;2.00;1.00;;;;;;5011471;28;20556;-73
2024/01/30 05:22:09;;;;;;;9.30;6.27;;;1.90;1.00;;;;;;5011624;28;20189;-73
2024/01/30 05:24:36;;;;;;;9.17;6.37;;;4.40;1.00;;;;;;5011838;28;20432;-74
2024/01/30 05:27:02;;;;;;;11.07;6.80;;;2.00;1.00;;;;;;5011185;28;20185;-73
2024/01/30 05:29:28;;;;;;;11.00;6.40;;;2.00;1.00;;;;;;5010286;28;20444;-73
2024/01/30 05:31:53;;;;;;;12.00;6.80;;;2.00;1.00;;;;;;5011356;28;20452;-73
2024/01/30 05:34:19;;;;;;;11.13;6.17;;;2.00;1.00;;;;;;5011044;28;20668;-73
2024/01/30 05:36:44;;;;;;;9.40;6.03;;;2.00;1.00;;;;;;5011859;28;20213;-73
2024/01/30 05:39:10;;;;;;;12.17;6.90;;;2.00;1.00;;;;;;5010725;28;20202;-73
2024/01/30 05:41:36;;;;;;;9.77;6.80;;;2.50;1.00;;;;;;5026709;28;20184;-73
2024/01/30 05:44:01;;;;;;;11.33;7.07;;;2.00;1.00;;;;;;5022390;28;20185;-72
2024/01/30 05:46:27;;;;;;;12.33;6.90;;;1.90;1.00;;;;;;5029626;28;20166;-73
2024/01/30 05:48:52;;;;;;;11.83;7.50;;;1.90;1.00;;;;;;5028013;28;20235;-73
2024/01/30 05:51:18;;;;;;;10.13;6.47;;;2.20;1.00;;;;;;5029269;28;20590;-73
2024/01/30 05:53:43;;;;;;;12.10;7.37;;;2.50;1.00;;;;;;5026863;28;20772;-73
2024/01/30 05:56:09;;;;;;;17.23;6.80;;;2.00;1.00;;;;;;5026946;28;20204;-73
2024/01/30 05:58:35;;;;;;;12.03;6.90;;;2.00;1.00;;;;;;5026928;28;20292;-73
2024/01/30 06:01:00;;;;;;;11.00;5.93;;;2.00;1.00;;;;;;5028779;28;20182;-73
2024/01/30 06:03:26;;;;;;;11.10;6.60;;;2.40;1.00;;;;;;5007989;28;20663;-73
2024/01/30 06:05:51;;;;;;;12.33;7.30;;;1.90;1.00;;;;;;5029244;28;20189;-74
2024/01/30 06:08:18;;;;;;;9.93;6.37;;;2.00;1.00;;;;;;5010950;28;20292;-74
2024/01/30 06:10:43;;;;;;;12.13;6.97;;;2.00;1.00;;;;;;5011235;28;20202;-74
2024/01/30 06:13:08;;;;;;;9.80;6.07;;;2.00;1.00;;;;;;5011204;28;20563;-73
2024/01/30 06:15:34;;;;;;;12.03;7.13;;;2.00;1.00;;;;;;5026477;28;20587;-74
2024/01/30 06:17:59;;;;;;;11.83;7.00;;;2.00;1.00;;;;;;5009630;28;20244;-73
2024/01/30 06:20:25;;;;;;;12.23;7.40;;;2.00;1.00;;;;;;5028594;28;20603;-74
2024/01/30 06:22:50;;;;;;;12.57;7.63;;;2.00;1.00;;;;;;5028076;28;20189;-74
2024/01/30 06:25:16;;;;;;;11.57;7.00;;;2.10;1.00;;;;;;5010464;28;20244;-74
2024/01/30 06:27:42;;;;;;;11.50;7.30;;;1.90;1.00;;;;;;5028355;28;20220;-74
2024/01/30 06:30:08;;;;;;;12.63;7.67;;;2.20;1.00;;;;;;5010399;28;20264;-73
2024/01/30 06:32:35;;;;;;;13.80;6.70;;;1.90;1.00;;;;;;5028118;28;20224;-74
2024/01/30 06:35:01;;;;;;;12.27;7.17;;;1.90;1.00;;;;;;5010984;28;20187;-73
2024/01/30 06:37:27;;;;;;;11.30;7.03;;;1.90;1.00;;;;;;5010693;28;20781;-74
2024/01/30 06:39:52;;;;;;;10.83;7.00;;;1.90;1.00;;;;;;5004087;28;20432;-73
2024/01/30 06:42:18;;;;;;;13.00;7.70;;;2.30;1.00;;;;;;5010685;28;20186;-73
2024/01/30 06:44:44;;;;;;;14.23;8.33;;;2.00;1.00;;;;;;5011046;28;20189;-74
2024/01/30 06:47:10;;;;;;;15.40;7.97;;;2.10;1.00;;;;;;5010258;28;20466;-73
2024/01/30 06:49:38;;;;;;;11.80;7.10;;;2.10;1.00;;;;;;5005602;28;20193;-75
2024/01/30 06:52:05;;;;;;;13.07;8.33;;;2.20;1.00;;;;;;5009808;28;20468;-73
2024/01/30 06:54:31;;;;;;;12.47;7.03;;;2.40;1.00;;;;;;5027485;28;20436;-72
2024/01/30 06:56:56;;;;;;;13.90;8.50;;;2.50;1.00;;;;;;5028671;28;20716;-74
2024/01/30 06:59:22;;;;;;;13.50;7.70;;;2.50;1.00;;;;;;5028376;28;20675;-73
2024/01/30 07:01:48;;;;;;;9.90;6.90;;;2.50;1.00;;;;;;5006775;28;20221;-74
2024/01/30 07:04:13;;;;;;;12.47;7.50;;;2.70;1.00;;;;;;5026998;28;20190;-73
2024/01/30 07:06:39;;;;;;;11.23;7.60;;;2.90;1.00;;;;;;5028266;28;20427;-73
2024/01/30 07:09:05;;;;;;;14.10;7.57;;;2.90;1.00;;;;;;5011857;28;20212;-73
2024/01/30 07:11:30;;;;;;;16.63;8.10;;;2.60;1.00;;;;;;5014164;28;20659;-73
2024/01/30 07:13:56;;;;;;;11.13;7.73;;;2.70;1.00;;;;;;5031409;28;20462;-73
2024/01/30 07:16:22;;;;;;;12.73;7.57;;;2.80;1.00;;;;;;5031230;28;20193;-73
2024/01/30 07:18:48;;;;;;;12.80;6.83;;;2.80;1.00;;;;;;5030814;28;20289;-73
2024/01/30 07:21:14;;;;;;;15.60;7.53;;;2.80;1.00;;;;;;5031126;28;20998;-73
2024/01/30 07:23:41;;;;;;;16.57;8.27;;;2.90;1.00;;;;;;5030972;28;20477;-72
2024/01/30 07:26:08;;;;;;;14.40;7.83;;;2.90;1.00;;;;;;5013445;28;20536;-73
2024/01/30 07:28:34;;;;;;;14.93;8.50;;;3.40;1.00;;;;;;5027659;28;20460;-73
2024/01/30 07:31:00;;;;;;;10.13;7.00;;;3.00;1.00;;;;;;5027256;28;20489;-75
2024/01/30 07:33:26;;;;;;;12.40;8.00;;;3.20;1.00;;;;;;5030120;28;20460;-73
2024/01/30 07:35:54;;;;;;;11.77;7.20;;;3.40;1.00;;;;;;5031230;28;20461;-73
2024/01/30 07:38:20;;;;;;;11.60;7.50;;;3.20;1.00;;;;;;5030328;28;20201;-74
2024/01/30 07:40:46;;;;;;;12.07;7.53;;;3.40;1.00;;;;;;5026471;28;20984;-73
2024/01/30 07:43:11;;;;;;;14.50;7.53;;;3.20;1.00;;;;;;5031416;28;20276;-73
2024/01/30 07:45:38;;;;;;;15.50;7.77;;;3.20;1.00;;;;;;5028914;28;20448;-73
2024/01/30 07:48:05;;;;;;;13.90;7.73;;;3.40;1.00;;;;;;5008518;28;20222;-73
2024/01/30 07:50:30;;;;;;;20.20;10.20;;;3.40;1.00;;;;;;5007429;28;20464;-73
2024/01/30 07:52:56;;;;;;;14.47;7.37;;;3.40;1.00;;;;;;5026273;28;20472;-73
2024/01/30 07:55:28;;;;;;;16.00;7.70;;;3.40;1.00;;;;;;5010667;28;20532;-73
2024/01/30 07:57:54;;;;;;;14.43;8.03;;;4.00;1.00;;;;;;5030469;28;20445;-74
2024/01/30 08:00:21;;;;;;;11.07;7.30;;;3.90;1.00;;;;;;5028789;28;20422;-72
2024/01/30 08:02:47;;;;;;;10.40;7.17;;;3.70;1.00;;;;;;5030089;28;20664;-73
2024/01/30 08:05:15;;;;;;;11.87;7.97;;;3.80;1.00;;;;;;5031168;28;20523;-73
2024/01/30 08:07:43;;;;;;;17.63;8.10;;;4.00;1.00;;;;;;5028356;28;20206;-73
2024/01/30 08:10:09;;;;;;;12.00;7.00;;;4.00;1.00;;;;;;5031436;28;20428;-74
2024/01/30 08:12:35;;;;;;;14.33;7.60;;;4.20;1.00;;;;;;5031446;28;20472;-73
2024/01/30 08:15:00;;;;;;;10.57;7.03;;;4.80;1.00;;;;;;5013990;28;20470;-73
2024/01/30 08:17:26;;;;;;;15.97;7.30;;;4.60;1.00;;;;;;5012839;28;20198;-72
2024/01/30 08:19:52;;;;;;;10.67;7.57;;;4.80;1.00;;;;;;5012685;28;20194;-73
2024/01/30 08:22:17;;;;;;;11.00;7.47;;;5.00;1.00;;;;;;5030986;28;20194;-74
2024/01/30 08:24:43;;;;;;;13.40;7.60;;;5.70;1.00;;;;;;5027472;28;20194;-74
2024/01/30 08:27:12;;;;;;;13.00;7.40;;;5.50;1.00;;;;;;5012707;28;20365;-76
2024/01/30 08:29:37;;;;;;;11.10;7.23;;;5.50;1.00;;;;;;5013698;28;20190;-73
2024/01/30 08:32:06;;;;;;;11.20;7.70;;;5.70;1.00;;;;;;5024715;28;20480;-73
2024/01/30 08:34:31;;;;;;;13.80;8.33;;;5.90;1.00;;;;;;5029669;28;20204;-74
2024/01/30 08:36:57;;;;;;;11.13;7.20;;;;;;;;;;5031026;28;20417;-73
2024/01/30 08:39:23;;;;;;;12.10;7.83;;;6.30;1.00;;;;;;5030537;28;20186;-73
2024/01/30 08:41:48;;;;;;;12.57;7.43;;;6.50;1.00;;;;;;5031630;28;20194;-73
2024/01/30 08:44:14;;;;;;;13.40;7.57;;;6.90;1.00;;;;;;5030349;28;20624;-73
2024/01/30 08:46:39;;;;;;;12.30;7.30;;;7.00;1.00;;;;;;5009877;28;20182;-73
2024/01/30 08:49:05;;;;;;;11.57;7.60;;;7.30;1.00;;;;;;5011303;28;20304;-73
2024/01/30 08:51:31;;;;;;;11.27;7.10;;;7.20;1.00;;;;;;5030384;28;20198;-72
2024/01/30 08:53:56;;;;;;;11.50;7.40;;;7.20;1.00;;;;;;5012478;28;20232;-73
2024/01/30 08:56:22;;;;;;;12.13;7.40;;;7.30;1.00;;;;;;5030694;28;20225;-74
2024/01/30 08:58:47;;;;;;;13.13;7.40;;;7.30;1.00;;;;;;5012172;28;20267;-73
2024/01/30 09:01:14;;;;;;;15.27;7.07;;;7.40;1.00;;;;;;5029602;28;20273;-73
2024/01/30 09:03:40;;;;;;;12.17;7.23;;;7.50;1.00;;;;;;5019760;28;20197;-74
2024/01/30 09:06:10;;;;;;;11.13;7.80;;;7.60;1.00;;;;;;5030852;28;20501;-72
2024/01/30 09:08:35;;;;;;;12.97;8.77;;;7.60;1.00;;;;;;5021724;28;20471;-73
2024/01/30 09:11:01;;;;;;;11.00;7.47;;;7.60;1.00;;;;;;5026296;28;20456;-74
2024/01/30 09:13:26;;;;;;;14.27;8.07;;;7.50;1.00;;;;;;5012197;28;20252;-72
2024/01/30 09:15:52;;;;;;;10.93;7.20;;;7.50;1.00;;;;;;5030752;28;20188;-73
2024/01/30 09:18:18;;;;;;;12.30;7.63;;;7.50;1.00;;;;;;5029284;28;20550;-73
2024/01/30 09:20:47;;;;;;;12.40;7.40;;;7.50;1.00;;;;;;5012445;28;20217;-73
2024/01/30 09:23:12;;;;;;;11.57;8.17;;;7.60;1.00;;;;;;5011035;28;20178;-74
2024/01/30 09:25:38;;;;;;;12.13;8.07;;;7.60;1.00;;;;;;5030143;28;20500;-73
2024/01/30 09:28:04;;;;;;;12.50;7.60;;;7.60;1.00;;;;;;5030524;28;20209;-74
2024/01/30 09:30:30;;;;;;;13.37;8.57;;;7.70;1.00;;;;;;5030108;28;20213;-76
2024/01/30 09:32:55;;;;;;;13.33;7.90;;;8.10;1.00;;;;;;5029656;28;20824;-73
2024/01/30 09:35:20;;;;;;;11.60;7.97;;;7.70;1.00;;;;;;5025605;28;20657;-73
2024/01/30 09:37:46;;;;;;;12.87;7.97;;;7.80;1.00;;;;;;5029235;28;20289;-75
2024/01/30 09:40:12;;;;;;;12.60;8.90;;;8.00;1.00;;;;;;5030519;28;20660;-72
2024/01/30 09:42:37;;;;;;;13.67;8.27;;;8.10;1.00;;;;;;5028695;28;20652;-73
2024/01/30 09:45:04;;;;;;;17.23;8.33;;;8.20;1.00;;;;;;5024969;28;20213;-73
2024/01/30 09:47:42;;;;;;;11.23;7.83;;;8.40;1.00;;;;;;5009410;28;20259;-73
2024/01/30 09:50:09;;;;;;;13.83;8.20;;;8.50;1.00;;;;;;5026091;28;20424;-74
2024/01/30 09:52:35;;;;;;;12.70;7.57;;;8.50;1.00;;;;;;5029298;28;20475;-74
2024/01/30 09:55:01;;;;;;;10.60;7.90;;;8.60;1.00;;;;;;5029366;28;20446;-76
2024/01/30 09:57:27;;;;;;;11.27;7.73;;;8.70;1.00;;;;;;5029554;28;20963;-75
2024/01/30 09:59:54;;;;;;;12.47;8.13;;;8.90;1.00;;;;;;5012022;28;20170;-74
2024/01/30 10:02:22;;;;;;;14.20;8.43;;;9.00;1.00;;;;;;5025906;28;20189;-74
2024/01/30 10:04:52;;;;;;;10.80;7.67;;;8.90;1.00;;;;;;5026580;28;20862;-74
2024/01/30 10:07:18;;;;;;;12.67;8.20;;;8.90;1.00;;;;;;5026615;28;20832;-74
2024/01/30 10:09:45;;;;;;;12.40;7.87;;;8.90;1.00;;;;;;5029398;28;20452;-74
2024/01/30 10:12:10;;;;;;;13.73;8.03;;;9.00;1.00;;;;;;5029133;28;20539;-73
2024/01/30 10:14:40;;;;;;;13.27;8.57;;;9.10;1.00;;;;;;5009268;28;20441;-73
2024/01/30 10:17:07;;;;;;;12.23;7.60;;;9.20;1.00;;;;;;5022042;28;20178;-75
2024/01/30 10:19:32;;;;;;;11.93;7.33;;;9.20;1.00;;;;;;5023855;28;20436;-73
2024/01/30 10:22:00;;;;;;;15.10;8.60;;;9.30;1.00;;;;;;5029813;28;20475;-73
2024/01/30 10:24:26;;;;;;;11.93;8.13;;;9.40;1.00;;;;;;5010571;28;20178;-74
2024/01/30 10:26:53;;;;;;;10.77;7.00;;;9.50;1.00;;;;;;5011809;28;20431;-74
2024/01/30 10:29:18;;;;;;;12.70;7.43;;;9.50;1.00;;;;;;5011131;28;20428;-77
2024/01/30 10:31:44;;;;;;;10.60;7.60;;;9.60;1.00;;;;;;5011849;28;20498;-72
2024/01/30 10:34:09;;;;;;;10.30;7.67;;;9.70;1.00;;;;;;5027854;28;20185;-73
2024/01/30 10:36:42;;;;;;;10.70;7.50;;;9.80;1.00;;;;;;5029095;28;20177;-74
2024/01/30 10:39:08;;;;;;;12.67;7.97;;;10.30;1.00;;;;;;5029729;28;20284;-73
2024/01/30 10:41:42;;;;;;;15.00;7.73;;;10.90;1.00;;;;;;5026797;28;20507;-74
2024/01/30 10:44:10;;;;;;;17.50;8.03;;;11.60;1.00;;;;;;5014952;28;20178;-73
2024/01/30 10:46:38;;;;;;;12.57;8.00;;;12.10;1.00;;;;;;5033104;28;20483;-73
2024/01/30 10:49:04;;;;;;;10.80;7.40;;;12.10;1.00;;;;;;5032011;28;20456;-74
2024/01/30 10:51:31;;;;;;;11.40;7.40;;;11.70;1.00;;;;;;5026008;28;20441;-73
2024/01/30 10:53:57;;;;;;;11.87;7.67;;;11.30;1.00;;;;;;5015369;28;20491;-74
2024/01/30 10:56:24;;;;;;;11.53;7.90;;;10.80;1.00;;;;;;5033341;28;20787;-72
2024/01/30 10:58:54;;;;;;;11.20;7.50;;;10.60;1.00;;;;;;5015367;28;20284;-73
2024/01/30 11:01:23;;;;;;;11.23;7.67;;;10.50;1.00;;;;;;5032216;28;20420;-73
2024/01/30 11:03:51;;;;;;;13.10;8.30;;;10.40;1.00;;;;;;5026333;28;20914;-72
2024/01/30 11:06:18;;;;;;;13.43;7.27;;;10.40;1.00;;;;;;5027772;28;20474;-73
2024/01/30 11:08:45;;;;;;;12.40;7.30;;;10.30;1.00;;;;;;5013715;28;20446;-75
2024/01/30 11:11:11;;;;;;;10.93;7.30;;;10.30;1.00;;;;;;5026919;28;20426;-74
2024/01/30 11:13:37;;;;;;;14.13;8.40;;;10.30;1.00;;;;;;5030768;28;20479;-73
2024/01/30 11:16:04;;;;;;;11.47;8.10;;;10.40;1.00;;;;;;5032466;28;20295;-74
2024/01/30 11:18:30;;;;;;;12.17;8.57;;;10.70;1.00;;;;;;5031902;28;20664;-73
2024/01/30 11:21:03;;;;;;;15.13;7.80;;;11.10;1.00;;;;;;5024104;28;20431;-77
2024/01/30 11:23:29;;;;;;;14.13;7.50;;;12.00;1.00;;;;;;5032063;28;20423;-73
2024/01/30 11:25:56;;;;;;;12.60;7.80;;;12.40;1.00;;;;;;5014902;28;20437;-75
2024/01/30 11:28:23;;;;;;;13.70;9.00;;;12.80;1.00;;;;;;5032071;28;20572;-73
2024/01/30 11:30:50;;;;;;;12.00;8.63;;;12.70;1.00;;;;;;5012427;28;20920;-74
2024/01/30 11:33:27;;;;;;;14.73;8.87;;;12.80;1.00;;;;;;5031982;28;20467;-75
2024/01/30 11:35:52;;;;;;;18.13;8.77;;;12.50;1.00;;;;;;5024561;28;20850;-74
2024/01/30 11:38:18;;;;;;;11.97;8.83;;;12.60;1.00;;;;;;5032059;28;20475;-74
2024/01/30 11:40:44;;;;;;;14.40;8.77;;;12.60;1.00;;;;;;5031075;28;20212;-73
2024/01/30 11:43:09;;;;;;;15.30;9.03;;;12.90;1.00;;;;;;5009894;28;20218;-73
2024/01/30 11:45:36;;;;;;;12.60;8.40;;;13.60;1.00;;;;;;5024044;28;20214;-72
2024/01/30 11:48:06;;;;;;;13.50;8.43;;;13.90;1.00;;;;;;5021298;28;20210;-75
2024/01/30 11:50:33;;;;;;;13.40;7.90;;;13.80;1.00;;;;;;5029138;28;20476;-73
2024/01/30 11:53:02;;;;;;;13.67;9.10;;;13.50;1.00;;;;;;5031508;28;20550;-73
2024/01/30 11:55:30;;;;;;;12.60;8.23;;;13.90;1.00;;;;;;5029537;28;20417;-74
2024/01/30 11:57:59;;;;;;;15.37;9.63;;;14.40;1.00;;;;;;5031803;28;20472;-74
2024/01/30 12:00:25;;;;;;;12.23;8.77;;;14.60;1.00;;;;;;5029170;28;20424;-73
2024/01/30 12:02:55;;;;;;;14.07;8.70;;;14.60;1.00;;;;;;5012863;28;20428;-74
2024/01/30 12:05:21;;;;;;;15.23;9.17;;;14.30;1.00;;;;;;5032803;28;20512;-74
2024/01/30 12:07:47;;;;;;;16.00;8.93;;;13.70;1.00;;;;;;5031470;28;20471;-74
2024/01/30 12:10:16;;;;;;;14.73;8.80;;;13.50;1.00;;;;;;5005772;28;20963;-73
2024/01/30 12:12:45;;;;;;;12.23;8.10;;;13.40;1.00;;;;;;5023601;28;20208;-74
2024/01/30 12:15:11;;;;;;;14.83;8.80;;;13.30;1.00;;;;;;5025522;28;20472;-74
2024/01/30 12:17:37;;;;;;;11.80;8.20;;;13.20;1.00;;;;;;5030126;28;20441;-74
2024/01/30 12:20:10;;;;;;;10.70;7.63;;;13.10;1.00;;;;;;5013069;28;20425;-73
2024/01/30 12:22:40;;;;;;;12.30;8.27;;;12.90;1.00;;;;;;5031205;28;20209;-73
2024/01/30 12:25:17;;;;;;;16.80;8.70;;;12.80;1.00;;;;;;5030716;28;20464;-74
2024/01/30 12:27:45;;;;;;;13.87;9.00;;;12.70;1.00;;;;;;5029117;28;21094;-74
2024/01/30 12:30:13;;;;;;;17.40;8.90;;;12.70;1.00;;;;;;5031558;28;21381;-74
2024/01/30 12:32:43;;;;;;;15.00;7.90;;;12.90;1.00;;;;;;5009834;28;20496;-73
2024/01/30 12:35:14;;;;;;;15.73;8.17;;;13.20;1.00;;;;;;5011229;28;20794;-74
2024/01/30 12:37:40;;;;;;;13.60;8.17;;;13.50;1.00;;;;;;5028860;28;20839;-73
2024/01/30 12:40:08;;;;;;;13.97;8.20;;;13.80;1.00;;;;;;5011058;28;20443;-74
2024/01/30 12:42:33;;;;;;;14.33;7.83;;;13.80;1.00;;;;;;5012802;28;20490;-74
2024/01/30 12:44:59;;;;;;;13.00;7.80;;;13.70;1.00;;;;;;5030533;28;20436;-73
2024/01/30 12:47:25;;;;;;;11.33;8.07;;;13.90;1.00;;;;;;5012994;28;20205;-73
2024/01/30 12:49:54;;;;;;;10.70;7.37;;;14.20;1.00;;;;;;5010418;28;20289;-74